AirNav   Air Wisconsin Up To $57,000 Bonus
 
 935 users online  

KNGS Santa Rosa Naval Outlying Field
Milton, Florida, USA

GOING TO MILTON?


FAA INFORMATION EFFECTIVE 16 JUNE 2022

Location

FAA Identifier: NGS
Lat/Long: 30-36-39.0000N 086-56-24.0000W
30-36.650000N 086-56.400000W
30.6108333,-86.9400000
(estimated)
Elevation: 150 ft. / 46 m (estimated)
Variation: 02W (2010)
From city: 5 miles SE of MILTON, FL
Time zone: UTC -5 (UTC -6 during Standard Time)
Zip code: 32583

Airport Operations

Airport use: Private use. Permission required prior to landing
Control tower: no
ARTCC: JACKSONVILLE CENTER
FSS: GAINESVILLE FLIGHT SERVICE STATION
Attendance: FRI 1515-0345Z++, ALL SAT-SUN CLSD, ALL HOLS CLSD, ALL MON-THU 1500-0545Z++
Segmented circle: no
Beacon: white-white-green (lighted military airport)
Operates sunset to sunrise.

Airport Communications

CTAF: 361.1
WX ASOS at NDZ (7 nm NW): PHONE 850-623-7210
WX ASOS at NSE (8 nm NW): PHONE 850-623-7241
WX ASOS at PNS (15 nm SW): 121.25 (850-436-4799)

Airport Services

Runway Information

Runway 5/23

Dimensions: 4500 x 150 ft. / 1372 x 46 m
Surface: asphalt
RUNWAY 5  RUNWAY 23
Traffic pattern: leftleft

Runway 9/27

Dimensions: 4500 x 150 ft. / 1372 x 46 m
Surface: asphalt
RUNWAY 9  RUNWAY 27
Traffic pattern: leftleft

Runway 14/32

Dimensions: 4500 x 150 ft. / 1372 x 46 m
Surface: asphalt
RUNWAY 14  RUNWAY 32
Traffic pattern: leftleft

Runway 18/36

Dimensions: 4500 x 150 ft. / 1372 x 46 m
Surface: asphalt
RUNWAY 18  RUNWAY 36
Traffic pattern: leftleft

Airport Ownership and Management from official FAA records

Ownership: U.S. Navy
Owner: COMMANDING OFFICER
WHITING FIELD NAS-NORTH
MILTON, FL 32570-5000
Phone 904-623-7371
Manager: COMMANDING OFFICER
7077 USS LEXINGTON COURT
MILTON, FL 32570-6155
Phone 850-623-7654
DSN 868-7654

Additional Remarks

LANDING SFCS ARE USED FOR MIL HEL OPNS ONLY ALTHOUGH THEY ARE CONFIGURED AS RYS.
RSTD: MIL USE ONLY.
MISC: CTL AGCY NAS WHITING FLD 868-7475, C850-623-7475.
TRAWING 5 ACFT ONLY. PPR FOR ALL OTR ACFT. CLSD FLD OPRS PROHIBITED WITH THE EXCEPTION OF LAS. CLSD FLD TO APCH SHALL TRMT ABV 500 FT AGL DUE TO APVD MODEL ACFT OPRS BLW 500 FT AGL.
FOR CD CTC PENSACOLA APCH AT 850-266-6884 OR 850-266-6885.

Instrument Procedures

There are no published instrument procedures at KNGS.

Some nearby airports with instrument procedures:

2R4 - Peter Prince Field Airport (3 nm NW)
KNDZ - Whiting Field Naval Air Station South (7 nm NW)
KNSE - Whiting Field Naval Air Station North (8 nm NW)
KPNS - Pensacola International Airport (15 nm SW)
KHRT - Hurlburt Field Airport (17 nm SE)
 
Loc | Ops | Rwys | IFR | FBO | Links
Com | Nav | Svcs | Stats | Notes
Area around KNGS (Santa Rosa Naval Outlying Field)
 
Road maps at: MapQuest Bing Google
 
Aerial photo
No photo
 
Sectional chart

 
Airport distance calculator
Flying to Santa Rosa Naval Outlying Field? Find the distance to fly.

From to KNGS

Sunrise and sunset
Times for 27-Jun-2022
 Local
(UTC-5)
 Zulu
(UTC)
Morning civil twilight05:2110:21
Sunrise05:4810:48
Sunset19:5300:53
Evening civil twilight20:2101:21

Current date and time
Zulu (UTC)  28-Jun-2022 03:32:24
Local (UTC-5)  27-Jun-2022 22:32:24
 
METAR
KNDZ 
7nm NW 
280256Z 36008KT 10SM SCT055 SCT250 27/22 A3003 RMK AO2 SLP155 T02720217 53015 $
KNSE 
7nm NW 
280056Z 27004KT 10SM SCT070 BKN120 BKN250 28/22 A2999 RMK SLP142 T02780222
KPNS 
15nm SW 
280253Z 01006KT 10SM BKN080 28/22 A3003 RMK AO2 SLP168 T02830222 53014 $
KHRT 
18nm SE 
280253Z 00000KT 10SM FEW070 27/23 A3001 RMK SLP164 60000 T02650229 52014 $
TAF
KNSE 
7nm NW 
2723/2823 21008KT 9999 VCSH SCT070CB SCT100 BKN250 QNH2995INS TEMPO 2723/2802 VRB10G15KT 8000 -SHRA BKN050 BKN100 FM280100 VRB03KT 9999 SCT050 SCT120 BKN250 QNH2998INS FM280900 03004KT 9999 FEW060 SCT250 QNH3000INS FM281600 16009KT 9999 VCTS SCT050CB SCT120 BKN250 QNH2997INS AUTOMATED SENSOR METWATCH 2704 TIL 2811 T23/2809Z T33/2819Z FN20096
KPNS 
15nm SW 
271739Z 2718/2818 12006KT P6SM FEW045 FEW250 FM272100 17007KT P6SM VCTS SCT030CB SCT250 FM280200 27005KT P6SM SCT100 BKN250 FM281200 08006KT P6SM SCT250
KHRT 
18nm SE 
280200Z 2802/2908 35005KT 9999 FEW080 QNH2997INS BECMG 2813/2814 12007KT 9999 SCT040 QNH3002INS BECMG 2819/2820 15010KT 9999 BKN030 QNH3000INS TX30/2819Z TN24/2810Z
NOTAMs
Click for the latest NOTAMs
NOTAMs are issued by the DoD/FAA and will open in a separate window not controlled by AirNav.

 

 
 

Would you like to see your business listed on this page?

 If your business provides an interesting product or service to pilots, flight crews, aircraft, or users of the Santa Rosa Naval Outlying Field, you should consider listing it here.  To start the listing process, click on the button below
 
Add a business
 

Other Pages about Santa Rosa Naval Outlying Field

Update a link
 
Copyright © AirNav, LLC. All rights reserved. Privacy Policy  Contact